createdAt,value
2023-05-01T00:00:41.488Z,22.13
2023-05-01T00:01:41.493Z,22.07
2023-05-01T00:02:41.583Z,22.07
2023-05-01T00:03:41.601Z,22.09
2023-05-01T00:04:41.549Z,22.12
2023-05-01T00:05:41.502Z,22.12
2023-05-01T00:06:41.533Z,22.10
2023-05-01T00:07:41.559Z,22.06
2023-05-01T00:08:41.500Z,22.12
2023-05-01T00:09:41.507Z,22.13
2023-05-01T00:10:41.505Z,22.13
2023-05-01T00:11:41.509Z,22.09
2023-05-01T00:12:41.502Z,22.12
2023-05-01T00:13:41.519Z,22.12
2023-05-01T00:14:41.508Z,22.16
2023-05-01T00:15:41.540Z,22.09
2023-05-01T00:16:41.642Z,22.12
2023-05-01T00:17:41.852Z,22.10
2023-05-01T00:18:41.524Z,22.12
2023-05-01T00:19:41.524Z,22.12
2023-05-01T00:20:41.521Z,22.06
2023-05-01T00:21:41.529Z,22.09
2023-05-01T00:22:41.522Z,22.13
2023-05-01T00:23:41.547Z,22.17
2023-05-01T00:24:41.537Z,22.12
2023-05-01T00:25:41.526Z,22.10
2023-05-01T00:26:41.531Z,22.09
2023-05-01T00:27:41.539Z,22.13
2023-05-01T00:28:41.554Z,22.04
2023-05-01T00:29:41.549Z,22.09
2023-05-01T00:30:41.543Z,22.10
2023-05-01T00:31:41.624Z,22.13
2023-05-01T00:32:41.651Z,22.13
2023-05-01T00:33:41.549Z,22.12
2023-05-01T00:34:41.555Z,22.07
2023-05-01T00:35:41.562Z,22.09
2023-05-01T00:36:41.561Z,22.09
2023-05-01T00:37:41.583Z,22.06
2023-05-01T00:38:41.558Z,22.06
2023-05-01T00:39:41.564Z,22.12
2023-05-01T00:40:41.565Z,22.09
2023-05-01T00:41:41.568Z,22.14
2023-05-01T00:42:41.570Z,22.13
2023-05-01T00:43:41.580Z,22.13
2023-05-01T00:44:41.574Z,22.09
2023-05-01T00:45:41.581Z,22.13
2023-05-01T00:46:41.577Z,22.13
2023-05-01T00:47:41.669Z,22.13
2023-05-01T00:48:41.583Z,22.12
2023-05-01T00:49:41.600Z,22.13
2023-05-01T00:50:41.597Z,22.07
2023-05-01T00:51:41.592Z,22.07
2023-05-01T00:52:41.590Z,22.12
2023-05-01T00:53:41.608Z,22.13
2023-05-01T00:54:41.595Z,22.12
2023-05-01T00:55:41.600Z,22.12
2023-05-01T00:56:41.602Z,22.13
2023-05-01T00:57:41.650Z,22.12
2023-05-01T00:58:41.639Z,22.09
2023-05-01T00:59:41.605Z,22.09
2023-05-01T01:00:41.607Z,22.14
2023-05-01T01:01:41.641Z,22.13
2023-05-01T01:02:41.680Z,22.12
2023-05-01T01:03:41.638Z,22.16
2023-05-01T01:04:41.660Z,22.10
2023-05-01T01:05:41.613Z,22.13
2023-05-01T01:06:41.760Z,22.07
2023-05-01T01:07:41.638Z,22.12
2023-05-01T01:08:41.626Z,22.04
2023-05-01T01:09:41.621Z,22.12
2023-05-01T01:10:41.629Z,22.09
2023-05-01T01:11:41.624Z,22.09
2023-05-01T01:12:41.629Z,22.10
2023-05-01T01:13:41.627Z,22.07
2023-05-01T01:14:41.641Z,22.12
2023-05-01T01:15:41.633Z,22.14
2023-05-01T01:16:41.743Z,22.13
2023-05-01T01:17:41.686Z,22.07
2023-05-01T01:18:41.645Z,22.04
2023-05-01T01:19:41.665Z,22.10
2023-05-01T01:20:41.650Z,21.99
2023-05-01T01:21:41.646Z,22.06
2023-05-01T01:22:41.656Z,22.14
2023-05-01T01:23:41.649Z,21.94
2023-05-01T01:24:41.665Z,22.06
2023-05-01T01:25:41.657Z,21.99
2023-05-01T01:26:41.665Z,22.01
2023-05-01T01:27:41.658Z,22.10
2023-05-01T01:28:41.662Z,22.07
2023-05-01T01:29:41.658Z,22.02
2023-05-01T01:30:41.694Z,22.09
2023-05-01T01:31:41.706Z,22.09
2023-05-01T01:32:41.720Z,22.06
2023-05-01T01:33:41.668Z,22.04
2023-05-01T01:34:41.671Z,21.99
2023-05-01T01:35:41.699Z,22.06
2023-05-01T01:36:41.676Z,22.06
2023-05-01T01:37:41.722Z,22.02
2023-05-01T01:38:41.684Z,22.06
2023-05-01T01:39:41.682Z,22.09
2023-05-01T01:40:41.685Z,22.10
2023-05-01T01:41:41.690Z,21.98
2023-05-01T01:42:41.710Z,22.04
2023-05-01T01:43:41.712Z,22.06
2023-05-01T01:44:41.701Z,22.07
2023-05-01T01:45:41.698Z,22.07
2023-05-01T01:46:41.776Z,22.06
2023-05-01T01:47:41.796Z,21.98
2023-05-01T01:48:41.725Z,22.02
2023-05-01T01:49:41.703Z,22.06
2023-05-01T01:50:41.707Z,22.04
2023-05-01T01:51:41.740Z,22.06
2023-05-01T01:52:41.706Z,21.94
2023-05-01T01:53:41.712Z,21.97
2023-05-01T01:54:41.724Z,22.07
2023-05-01T01:55:41.720Z,22.07
2023-05-01T01:56:41.714Z,21.97
2023-05-01T01:57:41.716Z,22.09
2023-05-01T01:58:41.722Z,22.04
2023-05-01T01:59:41.723Z,21.99
2023-05-01T02:00:41.733Z,22.09
2023-05-01T02:01:41.818Z,22.04
2023-05-01T02:02:41.850Z,22.06
2023-05-01T02:03:41.855Z,21.95
2023-05-01T02:04:41.735Z,22.02
2023-05-01T02:05:41.740Z,21.99
2023-05-01T02:06:41.830Z,22.09
2023-05-01T02:07:41.765Z,22.02
2023-05-01T02:08:41.742Z,22.01
2023-05-01T02:09:41.738Z,21.98
2023-05-01T02:10:41.743Z,22.01
2023-05-01T02:11:41.744Z,22.04
2023-05-01T02:12:41.750Z,22.06
2023-05-01T02:13:41.757Z,21.98
2023-05-01T02:14:41.757Z,22.02
2023-05-01T02:15:41.890Z,22.06
2023-05-01T02:16:41.949Z,22.02
2023-05-01T02:17:41.799Z,21.94
2023-05-01T02:18:41.762Z,22.02
2023-05-01T02:19:41.835Z,22.09
2023-05-01T02:20:41.792Z,22.04
2023-05-01T02:21:41.766Z,22.02
2023-05-01T02:22:42.097Z,22.01
2023-05-01T02:23:41.803Z,22.02
2023-05-01T02:24:41.769Z,22.04
2023-05-01T02:25:41.780Z,22.06
2023-05-01T02:26:41.784Z,22.04
2023-05-01T02:27:41.781Z,22.09
2023-05-01T02:28:41.789Z,22.02
2023-05-01T02:29:41.826Z,22.02
2023-05-01T02:30:41.797Z,22.04
2023-05-01T02:31:41.836Z,22.04
2023-05-01T02:32:41.818Z,22.06
2023-05-01T02:33:41.788Z,22.04
2023-05-01T02:34:41.791Z,22.01
2023-05-01T02:35:41.794Z,22.04
2023-05-01T02:36:41.803Z,22.02
2023-05-01T02:37:41.794Z,22.02
2023-05-01T02:38:41.808Z,21.99
2023-05-01T02:39:41.833Z,22.04
2023-05-01T02:40:41.809Z,22.09
2023-05-01T02:41:41.810Z,21.98
2023-05-01T02:42:41.811Z,21.99
2023-05-01T02:43:41.810Z,21.99
2023-05-01T02:44:41.830Z,22.04
2023-05-01T02:45:41.835Z,22.04
2023-05-01T02:46:41.841Z,22.04
2023-05-01T02:47:41.844Z,22.04
2023-05-01T02:48:41.819Z,22.06
2023-05-01T02:49:41.819Z,21.99
2023-05-01T02:50:41.826Z,22.06
2023-05-01T02:51:41.822Z,22.09
2023-05-01T02:52:41.976Z,21.98
2023-05-01T02:53:41.828Z,22.01
2023-05-01T02:54:41.840Z,22.01
2023-05-01T02:55:41.856Z,22.09
2023-05-01T02:56:41.832Z,21.99
2023-05-01T02:57:41.848Z,22.01
2023-05-01T02:58:41.845Z,22.07
2023-05-01T02:59:41.837Z,22.07
2023-05-01T03:00:41.849Z,21.98
2023-05-01T03:01:41.994Z,22.04
2023-05-01T03:02:41.925Z,22.04
2023-05-01T03:03:41.884Z,21.98
2023-05-01T03:04:41.960Z,21.99
2023-05-01T03:05:41.854Z,21.97
2023-05-01T03:06:41.964Z,22.02
2023-05-01T03:07:41.853Z,22.02
2023-05-01T03:08:41.857Z,22.02
2023-05-01T03:09:41.886Z,21.95
2023-05-01T03:10:41.862Z,22.02
2023-05-01T03:11:41.884Z,22.06
2023-05-01T03:12:41.868Z,22.04
2023-05-01T03:13:41.864Z,22.06
2023-05-01T03:14:41.872Z,22.01
2023-05-01T03:15:41.882Z,21.98
2023-05-01T03:16:41.932Z,22.01
2023-05-01T03:17:41.899Z,21.98
2023-05-01T03:19:41.876Z,22.01
2023-05-01T03:20:41.881Z,21.98
2023-05-01T03:21:41.885Z,21.95
2023-05-01T03:22:41.881Z,21.99
2023-05-01T03:23:41.882Z,21.97
2023-05-01T03:24:41.882Z,22.06
2023-05-01T03:25:41.882Z,22.06
2023-05-01T03:26:41.892Z,22.04
2023-05-01T03:27:41.982Z,22.04
2023-05-01T03:28:41.912Z,21.98
2023-05-01T03:29:41.889Z,22.07
2023-05-01T03:30:41.896Z,22.07
2023-05-01T03:31:41.973Z,22.04
2023-05-01T03:32:41.961Z,22.07
2023-05-01T03:33:41.897Z,22.02
2023-05-01T03:34:41.906Z,22.02
2023-05-01T03:35:41.922Z,22.02
2023-05-01T03:36:41.915Z,22.01
2023-05-01T03:37:41.903Z,21.97
2023-05-01T03:38:41.914Z,21.99
2023-05-01T03:39:41.910Z,21.95
2023-05-01T03:40:41.918Z,21.97
2023-05-01T03:41:41.912Z,22.06
2023-05-01T03:42:41.914Z,22.01
2023-05-01T03:43:41.973Z,22.07
2023-05-01T03:44:41.915Z,21.99
2023-05-01T03:45:44.712Z,22.02
2023-05-01T03:46:42.051Z,21.99
2023-05-01T03:47:41.964Z,22.09
2023-05-01T03:48:41.939Z,22.01
2023-05-01T03:49:41.926Z,21.95
2023-05-01T03:50:41.924Z,21.94
2023-05-01T03:51:41.933Z,22.04
2023-05-01T03:52:41.939Z,21.98
2023-05-01T03:53:41.929Z,22.02
2023-05-01T03:54:41.937Z,22.01
2023-05-01T03:55:41.938Z,22.01
2023-05-01T03:56:41.950Z,22.02
2023-05-01T03:57:41.962Z,22.01
2023-05-01T03:58:41.957Z,22.02
2023-05-01T03:59:41.979Z,22.04
2023-05-01T04:00:41.955Z,22.09
2023-05-01T04:01:41.970Z,22.06
2023-05-01T04:02:42.149Z,22.01
2023-05-01T04:03:42.034Z,22.07
2023-05-01T04:04:42.049Z,22.04
2023-05-01T04:05:41.965Z,22.07
2023-05-01T04:06:41.988Z,22.02
2023-05-01T04:07:42.079Z,22.02
2023-05-01T04:08:41.967Z,22.01
2023-05-01T04:09:41.968Z,22.04
2023-05-01T04:10:41.970Z,22.04
2023-05-01T04:11:41.977Z,22.09
2023-05-01T04:12:41.976Z,22.06
2023-05-01T04:13:41.974Z,22.09
2023-05-01T04:14:41.985Z,21.99
2023-05-01T04:15:42.085Z,22.04
2023-05-01T04:16:42.053Z,22.09
2023-05-01T04:17:42.034Z,22.01
2023-05-01T04:18:41.994Z,21.99
2023-05-01T04:19:41.983Z,22.02
2023-05-01T04:20:41.989Z,22.01
2023-05-01T04:21:41.989Z,22.09
2023-05-01T04:22:41.997Z,22.07
2023-05-01T04:23:41.998Z,22.02
2023-05-01T04:24:41.999Z,22.02
2023-05-01T04:25:42.001Z,22.02
2023-05-01T04:26:42.000Z,22.07
2023-05-01T04:27:42.055Z,22.07
2023-05-01T04:28:42.008Z,22.02
2023-05-01T04:29:42.008Z,22.09
2023-05-01T04:30:42.020Z,22.04
2023-05-01T04:31:42.195Z,22.07
2023-05-01T04:32:42.219Z,22.06
2023-05-01T04:33:42.014Z,22.01
2023-05-01T04:34:42.006Z,21.98
2023-05-01T04:35:42.015Z,21.98
2023-05-01T04:36:42.019Z,22.07
2023-05-01T04:37:42.015Z,22.06
2023-05-01T04:38:42.017Z,22.04
2023-05-01T04:39:42.021Z,22.02
2023-05-01T04:40:42.029Z,22.09
2023-05-01T04:41:42.034Z,22.02
2023-05-01T04:42:42.029Z,22.02
2023-05-01T04:43:42.038Z,22.06
2023-05-01T04:44:42.036Z,22.07
2023-05-01T04:45:42.030Z,22.01
2023-05-01T04:46:42.090Z,22.10
2023-05-01T04:47:42.085Z,21.99
2023-05-01T04:48:42.035Z,22.12
2023-05-01T04:49:42.062Z,22.04
2023-05-01T04:50:42.042Z,22.02
2023-05-01T04:51:42.048Z,22.02
2023-05-01T04:52:42.046Z,21.99
2023-05-01T04:53:42.145Z,21.98
2023-05-01T04:54:42.055Z,22.07
2023-05-01T04:55:42.066Z,22.07
2023-05-01T04:56:42.072Z,22.02
2023-05-01T04:57:42.050Z,22.09
2023-05-01T04:58:42.052Z,22.09
2023-05-01T04:59:42.067Z,22.07
2023-05-01T05:00:42.056Z,22.10
2023-05-01T05:01:42.125Z,21.99
2023-05-01T05:02:42.190Z,22.13
2023-05-01T05:03:42.268Z,22.12
2023-05-01T05:04:42.069Z,22.10
2023-05-01T05:05:42.064Z,22.07
2023-05-01T05:06:42.167Z,22.04
2023-05-01T05:07:42.064Z,22.14
2023-05-01T05:08:42.079Z,22.07
2023-05-01T05:09:42.076Z,22.07
2023-05-01T05:10:42.079Z,22.07
2023-05-01T05:11:42.074Z,22.09
2023-05-01T05:12:42.079Z,22.09
2023-05-01T05:13:42.088Z,22.13
2023-05-01T05:14:42.096Z,22.07
2023-05-01T05:15:42.101Z,22.07
2023-05-01T05:16:42.143Z,22.09
2023-05-01T05:17:42.143Z,22.06
2023-05-01T05:18:42.094Z,22.12
2023-05-01T05:19:42.113Z,22.10
2023-05-01T05:20:42.093Z,22.14
2023-05-01T05:21:42.101Z,22.07
2023-05-01T05:22:42.093Z,22.12
2023-05-01T05:23:42.103Z,22.12
2023-05-01T05:24:42.108Z,22.09
2023-05-01T05:25:42.104Z,22.07
2023-05-01T05:26:42.108Z,22.14
2023-05-01T05:27:42.112Z,22.13
2023-05-01T05:28:42.114Z,22.13
2023-05-01T05:29:42.115Z,22.12
2023-05-01T05:30:42.120Z,22.10
2023-05-01T05:31:42.184Z,22.09
2023-05-01T05:32:42.139Z,22.13
2023-05-01T05:33:42.272Z,22.09
2023-05-01T05:34:42.124Z,22.13
2023-05-01T05:35:42.147Z,22.14
2023-05-01T05:36:42.123Z,22.09
2023-05-01T05:37:42.942Z,22.12
2023-05-01T05:38:42.125Z,22.07
2023-05-01T05:39:42.140Z,22.12
2023-05-01T05:40:42.138Z,22.07
2023-05-01T05:41:42.146Z,22.13
2023-05-01T05:42:42.152Z,22.10
2023-05-01T05:43:42.141Z,22.06
2023-05-01T05:44:42.153Z,22.13
2023-05-01T05:45:42.297Z,22.12
2023-05-01T05:46:42.243Z,22.13
2023-05-01T05:47:42.181Z,22.12
2023-05-01T05:48:42.148Z,22.13
2023-05-01T05:49:42.178Z,22.07
2023-05-01T05:50:42.157Z,22.14
2023-05-01T05:51:42.189Z,22.10
2023-05-01T05:52:42.178Z,22.12
2023-05-01T05:53:42.161Z,22.19
2023-05-01T05:54:42.213Z,22.16
2023-05-01T05:55:42.173Z,22.19
2023-05-01T05:56:42.166Z,22.14
2023-05-01T05:57:42.187Z,22.14
2023-05-01T05:58:42.190Z,22.16
2023-05-01T05:59:42.219Z,22.17
2023-05-01T06:00:42.193Z,22.16
2023-05-01T06:01:42.188Z,22.10
2023-05-01T06:02:42.302Z,22.12
2023-05-01T06:03:42.301Z,22.22
2023-05-01T06:04:42.185Z,22.10
2023-05-01T06:05:42.256Z,22.20
2023-05-01T06:06:42.213Z,22.19
2023-05-01T06:07:42.230Z,22.14
2023-05-01T06:08:42.203Z,22.19
2023-05-01T06:09:42.193Z,22.25
2023-05-01T06:10:42.199Z,22.16
2023-05-01T06:11:42.201Z,22.16
2023-05-01T06:12:45.416Z,22.22
2023-05-01T06:13:42.230Z,22.22
2023-05-01T06:14:42.216Z,22.23
2023-05-01T06:15:42.267Z,22.23
2023-05-01T06:16:42.218Z,22.22
2023-05-01T06:17:42.248Z,22.28
2023-05-01T06:18:43.764Z,22.19
2023-05-01T06:19:42.215Z,22.17
2023-05-01T06:20:42.222Z,22.25
2023-05-01T06:21:42.220Z,22.23
2023-05-01T06:22:42.221Z,22.20
2023-05-01T06:23:42.246Z,22.27
2023-05-01T06:24:42.219Z,22.25
2023-05-01T06:25:42.247Z,22.31
2023-05-01T06:26:42.229Z,22.31
2023-05-01T06:27:42.230Z,22.22
2023-05-01T06:28:42.235Z,22.23
2023-05-01T06:29:42.225Z,22.28
2023-05-01T06:30:42.237Z,22.27
2023-05-01T06:31:42.302Z,22.28
2023-05-01T06:32:42.254Z,22.20
2023-05-01T06:33:42.245Z,22.37
2023-05-01T06:34:42.238Z,22.25
2023-05-01T06:35:42.237Z,22.23
2023-05-01T06:36:42.253Z,22.17
2023-05-01T06:37:42.247Z,22.22
2023-05-01T06:38:42.250Z,22.22
2023-05-01T06:39:42.283Z,22.17
2023-05-01T06:40:42.261Z,22.22
2023-05-01T06:41:42.260Z,22.29
2023-05-01T06:42:42.254Z,22.28
2023-05-01T06:43:42.270Z,22.13
2023-05-01T06:44:42.267Z,22.23
2023-05-01T06:45:42.263Z,22.14
2023-05-01T06:46:42.325Z,22.28
2023-05-01T06:47:42.361Z,22.20
2023-05-01T06:48:42.266Z,22.14
2023-05-01T06:49:42.265Z,22.23
2023-05-01T06:50:42.266Z,22.22
2023-05-01T06:51:42.284Z,22.22
2023-05-01T06:52:42.268Z,22.16
2023-05-01T06:53:42.291Z,22.13
2023-05-01T06:54:42.283Z,22.13
2023-05-01T06:55:42.294Z,22.25
2023-05-01T06:56:42.301Z,22.23
2023-05-01T06:57:42.280Z,22.13
2023-05-01T06:58:42.277Z,22.13
2023-05-01T06:59:42.304Z,22.13
2023-05-01T07:00:42.332Z,22.17
2023-05-01T07:01:42.350Z,22.19
2023-05-01T07:02:42.681Z,22.22
2023-05-01T07:03:42.369Z,22.29
2023-05-01T07:04:42.297Z,22.27
2023-05-01T07:05:42.307Z,22.16
2023-05-01T07:06:42.392Z,22.20
2023-05-01T07:07:50.300Z,22.29
2023-05-01T07:08:42.322Z,22.19
2023-05-01T07:09:42.365Z,22.20
2023-05-01T07:10:42.634Z,22.20
2023-05-01T07:11:42.343Z,22.23
2023-05-01T07:12:42.316Z,22.28
2023-05-01T07:13:42.321Z,22.25
2023-05-01T07:14:42.626Z,22.29
2023-05-01T07:15:42.333Z,22.27
2023-05-01T07:16:42.408Z,22.34
2023-05-01T07:17:42.414Z,22.37
2023-05-01T07:18:42.352Z,22.37
2023-05-01T07:19:42.347Z,22.35
2023-05-01T07:20:42.329Z,22.35
2023-05-01T07:21:42.340Z,22.34
2023-05-01T07:22:42.334Z,22.23
2023-05-01T07:23:42.366Z,22.22
2023-05-01T07:24:42.350Z,22.28
2023-05-01T07:25:42.370Z,22.29
2023-05-01T07:26:42.354Z,22.22
2023-05-01T07:27:42.391Z,22.31
2023-05-01T07:28:42.345Z,22.31
2023-05-01T07:29:42.370Z,22.23
2023-05-01T07:30:42.347Z,22.31
2023-05-01T07:31:42.420Z,22.28
2023-05-01T07:32:42.401Z,22.37
2023-05-01T07:33:42.353Z,22.32
2023-05-01T07:34:42.363Z,22.34
2023-05-01T07:35:42.371Z,22.34
2023-05-01T07:36:42.358Z,22.37
2023-05-01T07:37:42.366Z,22.38
2023-05-01T07:38:42.366Z,22.41
2023-05-01T07:39:42.368Z,22.37
2023-05-01T07:40:42.377Z,22.41
2023-05-01T07:41:42.374Z,22.38
2023-05-01T07:42:42.381Z,22.35
2023-05-01T07:43:42.393Z,22.44
2023-05-01T07:44:42.428Z,22.41
2023-05-01T07:45:42.431Z,22.47
2023-05-01T07:46:42.377Z,22.41
2023-05-01T07:47:42.414Z,22.38
2023-05-01T07:48:42.390Z,22.32
2023-05-01T07:49:42.399Z,22.35
2023-05-01T07:50:42.413Z,22.43
2023-05-01T07:51:42.404Z,22.43
2023-05-01T07:52:42.388Z,22.37
2023-05-01T07:53:42.434Z,22.53
2023-05-01T07:54:42.496Z,22.41
2023-05-01T07:55:42.402Z,22.39
2023-05-01T07:56:42.392Z,22.38
2023-05-01T07:57:42.412Z,22.13
2023-05-01T07:58:42.395Z,21.76
2023-05-01T07:59:42.436Z,21.46
2023-05-01T08:00:42.431Z,21.23
2023-05-01T08:01:42.425Z,21.14
2023-05-01T08:02:42.507Z,21.05
2023-05-01T08:03:42.478Z,21.08
2023-05-01T08:04:42.693Z,20.95
2023-05-01T08:05:42.430Z,20.95
2023-05-01T08:06:42.468Z,20.91
2023-05-01T08:07:42.428Z,20.79
2023-05-01T08:08:42.441Z,20.69
2023-05-01T08:09:42.419Z,20.59
2023-05-01T08:10:42.443Z,20.59
2023-05-01T08:11:42.450Z,20.47
2023-05-01T08:12:42.433Z,20.54
2023-05-01T08:13:42.431Z,20.50
2023-05-01T08:14:42.509Z,20.61
2023-05-01T08:15:42.509Z,20.91
2023-05-01T08:16:42.563Z,21.17
2023-05-01T08:17:42.524Z,21.32
2023-05-01T08:18:42.448Z,21.36
2023-05-01T08:19:42.457Z,21.27
2023-05-01T08:20:42.448Z,21.24
2023-05-01T08:21:42.449Z,21.19
2023-05-01T08:22:42.461Z,20.89
2023-05-01T08:23:42.458Z,20.80
2023-05-01T08:24:42.449Z,20.61
2023-05-01T08:25:42.472Z,20.53
2023-05-01T08:26:42.463Z,20.46
2023-05-01T08:27:42.458Z,20.47
2023-05-01T08:28:42.466Z,20.74
2023-05-01T08:29:42.514Z,21.02
2023-05-01T08:30:42.470Z,21.06
2023-05-01T08:31:42.665Z,21.24
2023-05-01T08:32:42.559Z,21.38
2023-05-01T08:33:42.472Z,21.57
2023-05-01T08:34:42.480Z,21.60
2023-05-01T08:35:42.474Z,21.69
2023-05-01T08:36:42.491Z,21.72
2023-05-01T08:37:42.472Z,21.85
2023-05-01T08:38:42.505Z,21.90
2023-05-01T08:39:42.483Z,21.85
2023-05-01T08:40:42.482Z,21.92
2023-05-01T08:41:42.489Z,21.98
2023-05-01T08:42:42.485Z,22.07
2023-05-01T08:43:42.489Z,22.12
2023-05-01T08:44:42.491Z,21.85
2023-05-01T08:45:42.798Z,21.45
2023-05-01T08:46:42.564Z,21.32
2023-05-01T08:47:42.560Z,21.35
2023-05-01T08:48:42.492Z,21.30
2023-05-01T08:49:42.502Z,21.24
2023-05-01T08:50:42.501Z,21.23
2023-05-01T08:51:42.514Z,21.35
2023-05-01T08:52:42.511Z,21.39
2023-05-01T08:53:42.510Z,21.59
2023-05-01T08:54:42.515Z,21.54
2023-05-01T08:55:42.512Z,21.34
2023-05-01T08:56:42.504Z,21.21
2023-05-01T08:57:42.510Z,21.27
2023-05-01T08:58:42.505Z,21.44
2023-05-01T08:59:42.514Z,21.57
2023-05-01T09:00:42.520Z,21.69
2023-05-01T09:01:42.548Z,21.83
2023-05-01T09:02:42.580Z,21.90
2023-05-01T09:03:42.646Z,21.95
2023-05-01T09:04:42.520Z,22.01
2023-05-01T09:05:42.531Z,22.09
2023-05-01T09:06:42.577Z,21.97
2023-05-01T09:07:42.524Z,22.09
2023-05-01T09:08:42.527Z,22.13
2023-05-01T09:09:42.536Z,22.06
2023-05-01T09:10:42.592Z,22.14
2023-05-01T09:11:42.532Z,22.16
2023-05-01T09:12:42.532Z,22.16
2023-05-01T09:13:42.533Z,22.14
2023-05-01T09:14:42.545Z,22.10
2023-05-01T09:15:42.572Z,22.20
2023-05-01T09:16:42.551Z,22.16
2023-05-01T09:17:42.612Z,22.19
2023-05-01T09:18:42.544Z,22.14
2023-05-01T09:19:42.569Z,22.22
2023-05-01T09:20:42.547Z,22.13
2023-05-01T09:21:42.551Z,22.22
2023-05-01T09:22:42.550Z,22.28
2023-05-01T09:23:42.550Z,22.17
2023-05-01T09:24:42.555Z,22.31
2023-05-01T09:25:42.569Z,22.37
2023-05-01T09:26:42.564Z,22.32
2023-05-01T09:27:42.571Z,22.29
2023-05-01T09:28:42.578Z,22.20
2023-05-01T09:29:42.567Z,22.19
2023-05-01T09:30:42.568Z,22.28
2023-05-01T09:31:42.603Z,22.23
2023-05-01T09:32:42.935Z,22.25
2023-05-01T09:33:42.580Z,22.27
2023-05-01T09:34:42.572Z,22.28
2023-05-01T09:35:42.608Z,22.28
2023-05-01T09:36:42.583Z,22.25
2023-05-01T09:37:42.580Z,22.38
2023-05-01T09:38:42.580Z,22.28
2023-05-01T09:39:42.585Z,22.43
2023-05-01T09:40:42.588Z,22.38
2023-05-01T09:41:42.587Z,22.43
2023-05-01T09:42:42.592Z,22.43
2023-05-01T09:43:42.592Z,22.43
2023-05-01T09:44:42.603Z,22.43
2023-05-01T09:45:42.721Z,22.47
2023-05-01T09:46:42.602Z,22.49
2023-05-01T09:47:42.682Z,22.49
2023-05-01T09:48:42.604Z,22.50
2023-05-01T09:49:42.605Z,22.56
2023-05-01T09:50:42.612Z,22.54
2023-05-01T09:51:42.635Z,22.52
2023-05-01T09:52:42.615Z,22.54
2023-05-01T09:53:42.614Z,22.56
2023-05-01T09:54:42.614Z,22.53
2023-05-01T09:55:42.626Z,22.65
2023-05-01T09:56:42.627Z,22.60
2023-05-01T09:57:42.629Z,22.52
2023-05-01T09:58:42.630Z,22.59
2023-05-01T09:59:42.636Z,22.57
2023-05-01T10:00:42.632Z,22.57
2023-05-01T10:01:42.701Z,22.56
2023-05-01T10:02:42.776Z,22.57
2023-05-01T10:03:42.921Z,22.65
2023-05-01T10:04:42.641Z,22.57
2023-05-01T10:05:42.645Z,22.60
2023-05-01T10:06:42.698Z,22.62
2023-05-01T10:07:42.692Z,22.67
2023-05-01T10:08:42.657Z,22.68
2023-05-01T10:09:42.650Z,22.69
2023-05-01T10:10:42.657Z,22.69
2023-05-01T10:11:42.661Z,22.68
2023-05-01T10:12:42.695Z,22.64
2023-05-01T10:13:42.663Z,22.64
2023-05-01T10:14:42.674Z,22.65
2023-05-01T10:15:42.673Z,22.60
2023-05-01T10:16:42.751Z,22.65
2023-05-01T10:17:42.715Z,22.69
2023-05-01T10:18:42.678Z,22.71
2023-05-01T10:19:42.687Z,22.69
2023-05-01T10:20:42.827Z,22.68
2023-05-01T10:21:42.716Z,22.68
2023-05-01T10:22:42.684Z,22.75
2023-05-01T10:23:42.708Z,22.69
2023-05-01T10:24:42.697Z,22.69
2023-05-01T10:25:42.773Z,22.69
2023-05-01T10:26:42.701Z,22.71
2023-05-01T10:27:42.704Z,22.60
2023-05-01T10:28:42.751Z,22.64
2023-05-01T10:29:42.702Z,22.60
2023-05-01T10:30:42.724Z,22.65
2023-05-01T10:31:42.957Z,22.56
2023-05-01T10:32:42.752Z,22.54
2023-05-01T10:33:42.730Z,22.57
2023-05-01T10:34:42.715Z,22.59
2023-05-01T10:35:42.712Z,22.50
2023-05-01T10:36:42.717Z,22.56
2023-05-01T10:37:42.722Z,22.53
2023-05-01T10:38:42.717Z,22.56
2023-05-01T10:39:42.745Z,22.50
2023-05-01T10:40:42.724Z,22.56
2023-05-01T10:41:42.728Z,22.60
2023-05-01T10:42:42.727Z,22.60
2023-05-01T10:43:42.723Z,22.72
2023-05-01T10:44:42.735Z,22.77
2023-05-01T10:45:42.733Z,22.71
2023-05-01T10:46:42.807Z,22.74
2023-05-01T10:47:42.804Z,22.72
2023-05-01T10:48:42.743Z,22.77
2023-05-01T10:49:42.747Z,22.77
2023-05-01T10:50:42.755Z,22.80
2023-05-01T10:51:42.754Z,22.83
2023-05-01T10:52:42.751Z,22.78
2023-05-01T10:53:42.754Z,22.83
2023-05-01T10:54:42.755Z,22.84
2023-05-01T10:55:42.782Z,22.83
2023-05-01T10:56:42.794Z,22.84
2023-05-01T10:57:42.766Z,22.80
2023-05-01T10:58:42.771Z,22.83
2023-05-01T10:59:42.767Z,22.86
2023-05-01T11:00:42.765Z,22.82
2023-05-01T11:01:42.830Z,22.82
2023-05-01T11:02:42.881Z,22.86
2023-05-01T11:03:42.788Z,22.87
2023-05-01T11:04:42.797Z,22.93
2023-05-01T11:05:42.863Z,22.83
2023-05-01T11:06:42.970Z,22.86
2023-05-01T11:07:42.791Z,22.94
2023-05-01T11:08:44.044Z,22.96
2023-05-01T11:09:42.792Z,22.94
2023-05-01T11:10:42.802Z,22.97
2023-05-01T11:11:42.941Z,22.93
2023-05-01T11:12:42.804Z,23.01
2023-05-01T11:13:42.806Z,22.93
2023-05-01T11:14:42.826Z,22.89
2023-05-01T11:15:42.858Z,23.01
2023-05-01T11:16:42.902Z,22.99
2023-05-01T11:17:43.288Z,22.94
2023-05-01T11:18:42.815Z,22.96
2023-05-01T11:19:42.817Z,23.02
2023-05-01T11:20:42.828Z,22.99
2023-05-01T11:21:42.837Z,22.97
2023-05-01T11:22:42.847Z,23.02
2023-05-01T11:23:42.834Z,23.04
2023-05-01T11:24:42.835Z,23.02
2023-05-01T11:25:42.845Z,22.89
2023-05-01T11:26:42.856Z,22.83
2023-05-01T11:27:42.946Z,22.82
2023-05-01T11:28:42.862Z,22.80
2023-05-01T11:29:42.846Z,22.92
2023-05-01T11:30:42.863Z,22.89
2023-05-01T11:31:42.926Z,22.93
2023-05-01T11:32:42.921Z,22.99
2023-05-01T11:33:42.855Z,22.99
2023-05-01T11:34:42.876Z,23.01
2023-05-01T11:35:42.864Z,23.07
2023-05-01T11:36:42.878Z,23.02
2023-05-01T11:37:42.868Z,23.02
2023-05-01T11:38:42.870Z,23.05
2023-05-01T11:39:42.874Z,23.07
2023-05-01T11:40:42.877Z,23.09
2023-05-01T11:41:42.942Z,22.93
2023-05-01T11:42:42.881Z,23.08
2023-05-01T11:43:42.908Z,23.08
2023-05-01T11:44:42.892Z,22.94
2023-05-01T11:45:42.940Z,23.01
2023-05-01T11:46:42.886Z,22.97
2023-05-01T11:47:42.906Z,22.94
2023-05-01T11:48:42.898Z,22.99
2023-05-01T11:49:42.904Z,22.94
2023-05-01T11:50:42.966Z,22.97
2023-05-01T11:51:42.938Z,22.94
2023-05-01T11:52:42.907Z,22.89
2023-05-01T11:53:42.912Z,22.92
2023-05-01T11:54:42.916Z,22.92
2023-05-01T11:55:42.931Z,22.93
2023-05-01T11:56:42.947Z,22.86
2023-05-01T11:57:42.921Z,22.92
2023-05-01T11:58:42.926Z,22.94
2023-05-01T11:59:42.950Z,22.89
2023-05-01T12:00:43.024Z,22.96
2023-05-01T12:01:42.928Z,22.90
2023-05-01T12:02:43.005Z,22.86
2023-05-01T12:03:42.993Z,22.86
2023-05-01T12:04:42.996Z,22.89
2023-05-01T12:05:42.966Z,22.84
2023-05-01T12:06:42.982Z,22.69
2023-05-01T12:07:42.953Z,22.38
2023-05-01T12:08:42.955Z,22.47
2023-05-01T12:09:42.951Z,22.53
2023-05-01T12:10:43.162Z,22.64
2023-05-01T12:11:42.957Z,22.60
2023-05-01T12:12:42.967Z,22.65
2023-05-01T12:13:42.961Z,22.72
2023-05-01T12:14:42.967Z,22.74
2023-05-01T12:15:42.998Z,22.65
2023-05-01T12:16:43.014Z,22.69
2023-05-01T12:17:43.013Z,22.71
2023-05-01T12:18:42.990Z,22.69
2023-05-01T12:19:42.978Z,22.82
2023-05-01T12:20:42.998Z,22.72
2023-05-01T12:21:42.988Z,22.69
2023-05-01T12:22:42.992Z,22.67
2023-05-01T12:23:42.992Z,22.69
2023-05-01T12:24:42.994Z,22.69
2023-05-01T12:25:43.109Z,22.68
2023-05-01T12:26:43.008Z,22.65
2023-05-01T12:27:42.993Z,22.68
2023-05-01T12:28:43.011Z,22.72
2023-05-01T12:29:43.016Z,22.65
2023-05-01T12:30:43.004Z,22.68
2023-05-01T12:31:43.174Z,22.69
2023-05-01T12:32:43.111Z,22.74
2023-05-01T12:33:43.010Z,22.69
2023-05-01T12:34:43.018Z,22.72
2023-05-01T12:35:43.169Z,22.67
2023-05-01T12:36:43.017Z,22.67
2023-05-01T12:37:43.026Z,22.74
2023-05-01T12:38:43.027Z,22.67
2023-05-01T12:39:43.018Z,22.67
2023-05-01T12:40:43.025Z,22.65
2023-05-01T12:41:43.040Z,22.62
2023-05-01T12:42:43.040Z,22.65
2023-05-01T12:43:44.399Z,22.65
2023-05-01T12:44:43.038Z,22.64
2023-05-01T12:45:43.044Z,22.64
2023-05-01T12:46:43.130Z,22.67
2023-05-01T12:47:43.144Z,22.57
2023-05-01T12:48:43.048Z,22.69
2023-05-01T12:49:43.054Z,22.62
2023-05-01T12:50:44.029Z,22.62
2023-05-01T12:51:43.042Z,22.64
2023-05-01T12:52:43.055Z,22.60
2023-05-01T12:53:43.051Z,22.64